createdAt,value
2019-02-26T00:00:54.540Z,0
2019-02-26T00:01:50.618Z,0
2019-02-26T00:02:51.127Z,0
2019-02-26T00:03:45.732Z,0
2019-02-26T00:04:46.419Z,0
2019-02-26T00:05:47.811Z,0
2019-02-26T00:06:53.966Z,0
2019-02-26T00:07:51.135Z,0
2019-02-26T00:08:47.298Z,0
2019-02-26T00:09:45.685Z,0
2019-02-26T00:10:50.159Z,0
2019-02-26T00:11:49.329Z,0
2019-02-26T00:12:45.612Z,0
2019-02-26T00:13:47.958Z,0
2019-02-26T00:14:52.906Z,0
2019-02-26T00:15:52.997Z,0
2019-02-26T00:16:54.131Z,0
2019-02-26T00:17:55.213Z,0
2019-02-26T00:18:47.437Z,0
2019-02-26T00:19:45.509Z,0
2019-02-26T00:20:48.555Z,0
2019-02-26T00:21:49.597Z,0
2019-02-26T00:22:48.341Z,0
2019-02-26T00:23:51.275Z,0
2019-02-26T00:24:51.426Z,0
2019-02-26T00:25:45.433Z,0
2019-02-26T00:26:49.970Z,0
2019-02-26T00:27:47.081Z,0
2019-02-26T00:28:50.485Z,0
2019-02-26T00:29:49.052Z,0
2019-02-26T00:30:49.636Z,0
2019-02-26T00:31:48.942Z,0
2019-02-26T00:32:47.703Z,0
2019-02-26T00:33:45.321Z,0
2019-02-26T00:34:48.044Z,0
2019-02-26T00:35:52.621Z,0
2019-02-26T00:36:45.976Z,0
2019-02-26T00:37:48.415Z,0
2019-02-26T00:38:49.423Z,0
2019-02-26T00:39:47.043Z,0
2019-02-26T00:40:49.804Z,0
2019-02-26T00:41:49.413Z,0
2019-02-26T00:42:45.577Z,0
2019-02-26T00:43:46.509Z,0
2019-02-26T00:44:46.866Z,0
2019-02-26T00:45:48.003Z,0
2019-02-26T00:46:48.494Z,0
2019-02-26T00:47:50.975Z,0
2019-02-26T00:48:49.865Z,0
2019-02-26T00:49:50.999Z,0
2019-02-26T00:50:47.013Z,0
2019-02-26T00:51:53.520Z,0
2019-02-26T00:52:48.298Z,0
2019-02-26T00:53:48.811Z,0
2019-02-26T00:54:46.126Z,0
2019-02-26T00:55:47.294Z,0
2019-02-26T00:56:48.248Z,0
2019-02-26T00:57:50.086Z,0
2019-02-26T00:58:53.438Z,0
2019-02-26T00:59:52.672Z,0
2019-02-26T01:00:45.047Z,0
2019-02-26T01:01:54.737Z,0
2019-02-26T01:02:44.920Z,0
2019-02-26T01:03:51.764Z,0
2019-02-26T01:04:51.452Z,0
2019-02-26T01:05:50.182Z,0
2019-02-26T01:06:44.874Z,0
2019-02-26T01:07:51.491Z,0
2019-02-26T01:08:51.881Z,0
2019-02-26T01:09:44.826Z,0
2019-02-26T01:10:50.605Z,0
2019-02-26T01:11:47.455Z,0
2019-02-26T01:12:49.275Z,0
2019-02-26T01:13:44.765Z,0
2019-02-26T01:14:52.671Z,0
2019-02-26T01:15:44.733Z,0
2019-02-26T01:16:50.840Z,0
2019-02-26T01:17:47.630Z,0
2019-02-26T01:18:48.796Z,0
2019-02-26T01:19:50.163Z,0
2019-02-26T01:20:48.252Z,0
2019-02-26T01:21:46.979Z,0
2019-02-26T01:22:50.203Z,0
2019-02-26T01:23:44.621Z,0
2019-02-26T01:24:44.606Z,0
2019-02-26T01:25:48.215Z,0
2019-02-26T01:26:47.638Z,0
2019-02-26T01:27:53.049Z,0
2019-02-26T01:28:55.937Z,0
2019-02-26T01:29:47.223Z,0
2019-02-26T01:30:45.768Z,0
2019-02-26T01:31:44.523Z,0
2019-02-26T01:32:44.502Z,0
2019-02-26T01:33:46.227Z,0
2019-02-26T01:34:49.755Z,0
2019-02-26T01:35:46.881Z,0
2019-02-26T01:36:49.668Z,0
2019-02-26T01:37:46.113Z,0
2019-02-26T01:38:55.520Z,0
2019-02-26T01:39:56.212Z,0
2019-02-26T01:40:55.949Z,0
2019-02-26T01:41:53.289Z,0
2019-02-26T01:42:52.104Z,0
2019-02-26T01:43:44.343Z,0
2019-02-26T01:44:49.332Z,0
2019-02-26T01:45:48.421Z,0
2019-02-26T01:46:48.252Z,0
2019-02-26T01:47:50.842Z,0
2019-02-26T01:48:48.369Z,0
2019-02-26T01:49:49.242Z,0
2019-02-26T01:50:47.843Z,0
2019-02-26T01:51:47.407Z,0
2019-02-26T01:52:44.208Z,0
2019-02-26T01:53:47.251Z,0
2019-02-26T01:54:46.784Z,0
2019-02-26T01:55:50.577Z,0
2019-02-26T01:56:46.473Z,0
2019-02-26T01:57:47.534Z,0
2019-02-26T01:58:44.125Z,0
2019-02-26T01:59:44.157Z,0
2019-02-26T02:00:46.021Z,0
2019-02-26T02:01:53.696Z,0
2019-02-26T02:02:44.094Z,0
2019-02-26T02:03:46.059Z,0
2019-02-26T02:04:50.087Z,0
2019-02-26T02:05:48.518Z,0
2019-02-26T02:06:48.037Z,0
2019-02-26T02:07:46.087Z,0
2019-02-26T02:08:55.469Z,0
2019-02-26T02:09:46.389Z,0
2019-02-26T02:10:43.959Z,0
2019-02-26T02:11:47.908Z,0
2019-02-26T02:12:48.617Z,0
2019-02-26T02:13:49.212Z,0
2019-02-26T02:14:43.905Z,0
2019-02-26T02:15:51.269Z,0
2019-02-26T02:16:43.865Z,0
2019-02-26T02:17:47.249Z,0
2019-02-26T02:18:52.938Z,0
2019-02-26T02:19:43.571Z,0
2019-02-26T02:20:43.807Z,0
2019-02-26T02:21:46.889Z,0
2019-02-26T02:22:49.257Z,0
2019-02-26T02:23:46.520Z,0
2019-02-26T02:24:56.302Z,0
2019-02-26T02:25:50.439Z,0
2019-02-26T02:26:53.466Z,0
2019-02-26T02:27:47.504Z,0
2019-02-26T02:28:45.152Z,0
2019-02-26T02:29:52.936Z,0
2019-02-26T02:30:46.285Z,0
2019-02-26T02:31:47.282Z,0
2019-02-26T02:32:47.154Z,0
2019-02-26T02:33:46.487Z,0
2019-02-26T02:34:50.147Z,0
2019-02-26T02:35:43.612Z,0
2019-02-26T02:36:43.576Z,0
2019-02-26T02:37:43.590Z,0
2019-02-26T02:38:46.127Z,0
2019-02-26T02:39:43.532Z,0
2019-02-26T02:40:52.454Z,0
2019-02-26T02:41:54.904Z,0
2019-02-26T02:42:51.770Z,0
2019-02-26T02:43:43.229Z,0
2019-02-26T02:44:50.201Z,0
2019-02-26T02:45:43.446Z,0
2019-02-26T02:46:50.989Z,0
2019-02-26T02:47:46.475Z,0
2019-02-26T02:48:43.400Z,0
2019-02-26T02:49:51.158Z,0
2019-02-26T02:50:43.374Z,0
2019-02-26T02:51:46.754Z,0
2019-02-26T02:52:46.576Z,0
2019-02-26T02:53:45.174Z,0
2019-02-26T02:54:51.891Z,0
2019-02-26T02:55:53.844Z,0
2019-02-26T02:56:49.168Z,0
2019-02-26T02:57:43.942Z,0
2019-02-26T02:58:51.682Z,0
2019-02-26T02:59:49.262Z,0
2019-02-26T03:00:45.977Z,0
2019-02-26T03:01:46.304Z,0
2019-02-26T03:02:56.083Z,0
2019-02-26T03:03:45.207Z,0
2019-02-26T03:04:44.314Z,0
2019-02-26T03:05:50.579Z,0
2019-02-26T03:06:47.445Z,0
2019-02-26T03:07:48.676Z,0
2019-02-26T03:08:48.612Z,0
2019-02-26T03:09:50.507Z,0
2019-02-26T03:10:49.837Z,0
2019-02-26T03:11:57.030Z,0
2019-02-26T03:12:43.983Z,0
2019-02-26T03:13:49.157Z,0
2019-02-26T03:14:49.286Z,0
2019-02-26T03:15:47.362Z,0
2019-02-26T03:16:51.327Z,0
2019-02-26T03:17:43.015Z,0
2019-02-26T03:18:42.967Z,0
2019-02-26T03:19:50.567Z,0
2019-02-26T03:20:48.962Z,0
2019-02-26T03:21:47.183Z,0
2019-02-26T03:22:53.539Z,0
2019-02-26T03:23:50.386Z,0
2019-02-26T03:24:45.132Z,0
2019-02-26T03:25:45.367Z,0
2019-02-26T03:26:42.850Z,0
2019-02-26T03:27:49.302Z,0
2019-02-26T03:28:55.513Z,0
2019-02-26T03:29:42.815Z,0
2019-02-26T03:30:51.646Z,0
2019-02-26T03:31:57.591Z,0
2019-02-26T03:33:04.070Z,0
2019-02-26T03:33:42.762Z,0
2019-02-26T03:34:42.776Z,0
2019-02-26T03:35:42.743Z,0
2019-02-26T03:36:50.054Z,0
2019-02-26T03:37:45.701Z,0
2019-02-26T03:38:48.203Z,0
2019-02-26T03:39:42.669Z,0
2019-02-26T03:40:45.567Z,0
2019-02-26T03:41:43.158Z,0
2019-02-26T03:42:50.535Z,0
2019-02-26T03:43:46.958Z,0
2019-02-26T03:44:46.057Z,0
2019-02-26T03:45:47.280Z,0
2019-02-26T03:46:42.550Z,0
2019-02-26T03:47:45.345Z,0
2019-02-26T03:48:42.516Z,0
2019-02-26T03:49:46.569Z,0
2019-02-26T03:50:46.696Z,0
2019-02-26T03:51:46.336Z,0
2019-02-26T03:52:42.477Z,0
2019-02-26T03:53:48.381Z,0
2019-02-26T03:54:48.641Z,0
2019-02-26T03:55:48.716Z,0
2019-02-26T03:56:42.399Z,0
2019-02-26T03:57:50.983Z,0
2019-02-26T03:58:42.394Z,0
2019-02-26T03:59:42.118Z,0
2019-02-26T04:00:51.543Z,0
2019-02-26T04:01:42.335Z,0
2019-02-26T04:02:53.298Z,0
2019-02-26T04:03:48.983Z,0
2019-02-26T04:04:45.823Z,0
2019-02-26T04:05:42.051Z,0
2019-02-26T04:06:51.641Z,0
2019-02-26T04:07:43.536Z,0
2019-02-26T04:08:45.326Z,0
2019-02-26T04:09:52.996Z,0
2019-02-26T04:10:42.212Z,0
2019-02-26T04:11:53.355Z,0
2019-02-26T04:12:55.140Z,0
2019-02-26T04:13:45.908Z,0
2019-02-26T04:14:42.206Z,0
2019-02-26T04:15:45.569Z,0
2019-02-26T04:16:48.461Z,0
2019-02-26T04:17:48.866Z,0
2019-02-26T04:18:44.337Z,0
2019-02-26T04:19:46.169Z,0
2019-02-26T04:20:45.982Z,0
2019-02-26T04:21:42.017Z,0
2019-02-26T04:22:53.163Z,0
2019-02-26T04:23:49.281Z,0
2019-02-26T04:24:45.498Z,0
2019-02-26T04:25:44.960Z,0
2019-02-26T04:26:44.629Z,0
2019-02-26T04:27:48.815Z,0
2019-02-26T04:28:49.984Z,0
2019-02-26T04:29:51.799Z,0
2019-02-26T04:30:54.290Z,0
2019-02-26T04:31:47.002Z,0
2019-02-26T04:32:49.039Z,0
2019-02-26T04:33:48.370Z,0
2019-02-26T04:34:41.584Z,0
2019-02-26T04:35:42.226Z,0
2019-02-26T04:36:49.563Z,0
2019-02-26T04:37:45.717Z,0
2019-02-26T04:38:43.305Z,0
2019-02-26T04:39:50.060Z,0
2019-02-26T04:40:45.989Z,0
2019-02-26T04:41:42.161Z,0
2019-02-26T04:42:50.546Z,0
2019-02-26T04:43:45.941Z,0
2019-02-26T04:44:47.629Z,0
2019-02-26T04:45:41.663Z,0
2019-02-26T04:46:46.706Z,0
2019-02-26T04:47:51.012Z,0
2019-02-26T04:48:43.726Z,0
2019-02-26T04:49:49.589Z,0
2019-02-26T04:50:49.392Z,0
2019-02-26T04:51:52.825Z,0
2019-02-26T04:52:48.372Z,0
2019-02-26T04:53:48.580Z,0
2019-02-26T04:54:46.739Z,0
2019-02-26T04:55:49.685Z,0
2019-02-26T04:56:53.432Z,0
2019-02-26T04:57:48.984Z,0
2019-02-26T04:58:50.218Z,0
2019-02-26T04:59:48.696Z,0
2019-02-26T05:00:45.825Z,0
2019-02-26T05:01:46.105Z,0
2019-02-26T05:02:41.445Z,0
2019-02-26T05:03:41.423Z,0
2019-02-26T05:04:47.058Z,0
2019-02-26T05:05:45.836Z,0
2019-02-26T05:06:41.366Z,0
2019-02-26T05:07:50.185Z,0
2019-02-26T05:08:47.703Z,0
2019-02-26T05:09:44.645Z,0
2019-02-26T05:10:43.710Z,0
2019-02-26T05:11:47.868Z,0
2019-02-26T05:12:47.284Z,0
2019-02-26T05:13:43.627Z,0
2019-02-26T05:14:41.282Z,0
2019-02-26T05:15:45.702Z,0
2019-02-26T05:16:47.486Z,0
2019-02-26T05:17:42.805Z,0
2019-02-26T05:18:49.439Z,0
2019-02-26T05:19:51.723Z,0
2019-02-26T05:20:50.937Z,0
2019-02-26T05:21:45.076Z,0
2019-02-26T05:22:42.916Z,0
2019-02-26T05:23:43.107Z,0
2019-02-26T05:24:47.256Z,0
2019-02-26T05:25:49.433Z,0
2019-02-26T05:26:41.121Z,0
2019-02-26T05:27:50.746Z,0
2019-02-26T05:28:53.869Z,0
2019-02-26T05:29:49.002Z,0
2019-02-26T05:30:49.294Z,0
2019-02-26T05:31:47.839Z,0
2019-02-26T05:32:44.456Z,0
2019-02-26T05:33:42.293Z,0
2019-02-26T05:34:47.908Z,0
2019-02-26T05:35:48.958Z,0
2019-02-26T05:36:50.964Z,0
2019-02-26T05:37:47.798Z,0
2019-02-26T05:38:44.809Z,0
2019-02-26T05:39:46.606Z,0
2019-02-26T05:40:50.096Z,0
2019-02-26T05:41:43.040Z,0
2019-02-26T05:42:40.887Z,0
2019-02-26T05:43:49.255Z,0
2019-02-26T05:44:40.849Z,0
2019-02-26T05:45:44.402Z,0
2019-02-26T05:46:40.815Z,0
2019-02-26T05:47:42.892Z,0
2019-02-26T05:48:48.253Z,0
2019-02-26T05:49:48.403Z,0
2019-02-26T05:50:49.515Z,5
2019-02-26T05:51:45.287Z,5
2019-02-26T05:52:42.836Z,5
2019-02-26T05:53:40.485Z,5
2019-02-26T05:54:40.716Z,5
2019-02-26T05:55:42.182Z,5
2019-02-26T05:56:49.711Z,5
2019-02-26T05:57:41.894Z,5
2019-02-26T05:58:49.483Z,5
2019-02-26T05:59:41.952Z,5
2019-02-26T06:00:42.821Z,10
2019-02-26T06:01:40.621Z,10
2019-02-26T06:02:48.448Z,10
2019-02-26T06:03:46.669Z,10
2019-02-26T06:04:49.062Z,15
2019-02-26T06:05:45.923Z,15
2019-02-26T06:06:40.676Z,15
2019-02-26T06:07:45.774Z,15
2019-02-26T06:08:45.780Z,20
2019-02-26T06:09:45.176Z,20
2019-02-26T06:10:42.088Z,25
2019-02-26T06:11:52.543Z,25
2019-02-26T06:12:49.193Z,25
2019-02-26T06:13:47.784Z,30
2019-02-26T06:14:46.259Z,30
2019-02-26T06:15:43.383Z,30
2019-02-26T06:16:43.017Z,35
2019-02-26T06:17:51.307Z,35
2019-02-26T06:18:44.466Z,40
2019-02-26T06:19:49.782Z,45
2019-02-26T06:20:43.808Z,45
2019-02-26T06:21:49.763Z,50
2019-02-26T06:22:41.765Z,50
2019-02-26T06:23:47.680Z,50
2019-02-26T06:24:45.167Z,50
2019-02-26T06:25:40.451Z,55
2019-02-26T06:26:49.737Z,55
2019-02-26T06:27:40.262Z,60
2019-02-26T06:28:52.893Z,60
2019-02-26T06:29:44.522Z,55
2019-02-26T06:30:40.218Z,60
2019-02-26T06:31:49.238Z,60
2019-02-26T06:32:49.271Z,65
2019-02-26T06:33:50.671Z,65
2019-02-26T06:34:40.171Z,70
2019-02-26T06:35:45.814Z,75
2019-02-26T06:36:41.725Z,80
2019-02-26T06:37:44.861Z,80
2019-02-26T06:38:42.651Z,80
2019-02-26T06:39:43.399Z,85
2019-02-26T06:40:51.863Z,90
2019-02-26T06:41:44.177Z,90
2019-02-26T06:42:45.157Z,100
2019-02-26T06:43:50.803Z,110
2019-02-26T06:44:46.322Z,110
2019-02-26T06:45:47.345Z,115
2019-02-26T06:46:45.445Z,115
2019-02-26T06:47:42.311Z,115
2019-02-26T06:48:41.784Z,110
2019-02-26T06:49:41.351Z,100
2019-02-26T06:50:47.762Z,100
2019-02-26T06:51:40.288Z,100
2019-02-26T06:52:53.028Z,100
2019-02-26T06:53:39.923Z,100
2019-02-26T06:54:41.314Z,105
2019-02-26T06:55:39.899Z,105
2019-02-26T06:56:54.826Z,110
2019-02-26T06:57:44.608Z,110
2019-02-26T06:58:45.523Z,110
2019-02-26T06:59:44.018Z,115
2019-02-26T07:00:41.398Z,115
2019-02-26T07:01:46.713Z,115
2019-02-26T07:02:39.804Z,115
2019-02-26T07:03:43.196Z,115
2019-02-26T07:04:39.776Z,125
2019-02-26T07:05:42.024Z,110
2019-02-26T07:06:42.790Z,115
2019-02-26T07:07:39.750Z,115
2019-02-26T07:08:41.939Z,115
2019-02-26T07:09:46.664Z,120
2019-02-26T07:10:41.192Z,115
2019-02-26T07:11:44.904Z,115
2019-02-26T07:12:43.531Z,110
2019-02-26T07:13:47.086Z,110
2019-02-26T07:14:43.558Z,115
2019-02-26T07:15:39.646Z,120
2019-02-26T07:16:42.739Z,120
2019-02-26T07:17:48.545Z,125
2019-02-26T07:18:39.607Z,130
2019-02-26T07:19:44.381Z,135
2019-02-26T07:20:57.259Z,135
2019-02-26T07:21:42.815Z,130
2019-02-26T07:22:43.759Z,135
2019-02-26T07:23:44.848Z,135
2019-02-26T07:24:41.822Z,135
2019-02-26T07:25:48.590Z,140
2019-02-26T07:26:46.403Z,140
2019-02-26T07:27:45.315Z,145
2019-02-26T07:28:43.907Z,150
2019-02-26T07:29:54.521Z,160
2019-02-26T07:30:46.943Z,165
2019-02-26T07:31:42.612Z,165
2019-02-26T07:32:47.672Z,170
2019-02-26T07:33:46.090Z,180
2019-02-26T07:34:40.347Z,180
2019-02-26T07:35:45.317Z,190
2019-02-26T07:36:41.015Z,195
2019-02-26T07:37:45.123Z,205
2019-02-26T07:38:56.038Z,210
2019-02-26T07:39:41.497Z,215
2019-02-26T07:40:45.179Z,215
2019-02-26T07:41:39.880Z,215
2019-02-26T07:42:49.525Z,220
2019-02-26T07:43:46.771Z,225
2019-02-26T07:44:39.318Z,235
2019-02-26T07:45:41.638Z,240
2019-02-26T07:46:47.161Z,265
2019-02-26T07:47:45.165Z,380
2019-02-26T07:48:41.277Z,385
2019-02-26T07:49:39.261Z,360
2019-02-26T07:50:53.042Z,335
2019-02-26T07:51:47.677Z,300
2019-02-26T07:52:42.144Z,350
2019-02-26T07:53:41.978Z,365
2019-02-26T07:54:42.802Z,375
2019-02-26T07:55:47.016Z,330
2019-02-26T07:56:42.026Z,280
2019-02-26T07:57:40.441Z,270
2019-02-26T07:58:45.890Z,255
2019-02-26T07:59:50.234Z,255
2019-02-26T08:00:52.272Z,250
2019-02-26T08:01:44.713Z,235
2019-02-26T08:02:43.846Z,225
2019-02-26T08:03:39.119Z,220
2019-02-26T08:04:47.944Z,220
2019-02-26T08:05:39.102Z,215
2019-02-26T08:06:43.677Z,230
2019-02-26T08:07:40.289Z,240
2019-02-26T08:08:42.045Z,255
2019-02-26T08:09:39.065Z,270
2019-02-26T08:10:48.921Z,295
2019-02-26T08:11:46.823Z,305
2019-02-26T08:12:47.275Z,295
2019-02-26T08:13:43.643Z,285
2019-02-26T08:14:42.855Z,285
2019-02-26T08:15:44.630Z,285
2019-02-26T08:16:39.557Z,280
2019-02-26T08:17:38.991Z,280
2019-02-26T08:18:38.986Z,285
2019-02-26T08:19:49.387Z,295
2019-02-26T08:20:45.093Z,290
2019-02-26T08:21:39.212Z,285
2019-02-26T08:22:43.342Z,275
2019-02-26T08:23:38.691Z,260
2019-02-26T08:24:38.922Z,250
2019-02-26T08:25:38.930Z,240
2019-02-26T08:26:43.316Z,240
2019-02-26T08:27:43.094Z,240
2019-02-26T08:28:44.078Z,225
2019-02-26T08:29:43.266Z,220
2019-02-26T08:30:45.096Z,215
2019-02-26T08:31:42.508Z,215
2019-02-26T08:32:41.605Z,210
2019-02-26T08:33:38.877Z,215
2019-02-26T08:34:41.663Z,240
2019-02-26T08:35:38.830Z,260
2019-02-26T08:36:38.814Z,270
2019-02-26T08:37:38.805Z,280
2019-02-26T08:38:39.458Z,285
2019-02-26T08:39:42.325Z,280
2019-02-26T08:40:38.791Z,280
2019-02-26T08:41:38.771Z,275
2019-02-26T08:42:38.522Z,280
2019-02-26T08:43:42.076Z,275
2019-02-26T08:44:38.744Z,260
2019-02-26T08:45:40.553Z,255
2019-02-26T08:46:42.093Z,260
2019-02-26T08:47:38.718Z,260
2019-02-26T08:48:39.480Z,260
2019-02-26T08:49:45.132Z,265
2019-02-26T08:50:48.689Z,270
2019-02-26T08:51:38.681Z,270
2019-02-26T08:52:38.930Z,275
2019-02-26T08:53:40.937Z,290
2019-02-26T08:54:42.954Z,310
2019-02-26T08:55:38.404Z,320
2019-02-26T08:56:45.759Z,315
2019-02-26T08:57:38.696Z,310
2019-02-26T08:58:38.371Z,325
2019-02-26T08:59:38.606Z,315
2019-02-26T09:00:39.102Z,325
2019-02-26T09:01:38.599Z,335
2019-02-26T09:02:38.584Z,335
2019-02-26T09:03:48.149Z,330
2019-02-26T09:04:44.849Z,335
2019-02-26T09:05:43.944Z,350
2019-02-26T09:06:38.542Z,345
2019-02-26T09:07:42.765Z,340
2019-02-26T09:08:46.050Z,310
2019-02-26T09:09:40.452Z,295
2019-02-26T09:10:41.261Z,285
2019-02-26T09:11:43.996Z,285
2019-02-26T09:12:38.912Z,285
2019-02-26T09:13:46.389Z,265
2019-02-26T09:14:49.996Z,255
2019-02-26T09:15:46.087Z,255
2019-02-26T09:16:40.275Z,255
2019-02-26T09:17:46.696Z,265
2019-02-26T09:18:45.118Z,275
2019-02-26T09:19:42.921Z,270
2019-02-26T09:20:38.436Z,280
2019-02-26T09:21:45.158Z,275
2019-02-26T09:22:40.523Z,270
2019-02-26T09:23:40.447Z,270
2019-02-26T09:24:38.404Z,275
2019-02-26T09:25:41.150Z,275
2019-02-26T09:26:57.383Z,280
2019-02-26T09:27:47.790Z,280
2019-02-26T09:28:39.690Z,270
2019-02-26T09:29:48.912Z,275
2019-02-26T09:30:45.604Z,275
2019-02-26T09:31:38.349Z,275
2019-02-26T09:32:47.074Z,280
2019-02-26T09:33:47.961Z,280
2019-02-26T09:34:44.711Z,280
2019-02-26T09:35:40.753Z,280
2019-02-26T09:37:03.464Z,280
2019-02-26T09:37:38.303Z,280
2019-02-26T09:38:39.236Z,285
2019-02-26T09:39:43.832Z,300
2019-02-26T09:40:41.988Z,300
2019-02-26T09:41:45.521Z,300
2019-02-26T09:42:39.965Z,300
2019-02-26T09:43:40.913Z,300
2019-02-26T09:44:43.252Z,315
2019-02-26T09:45:41.585Z,320
2019-02-26T09:46:46.580Z,315
2019-02-26T09:47:41.001Z,330
2019-02-26T09:48:44.760Z,340
2019-02-26T09:49:42.891Z,340
2019-02-26T09:50:43.456Z,330
2019-02-26T09:51:44.759Z,320
2019-02-26T09:52:41.671Z,315
2019-02-26T09:53:38.187Z,315
2019-02-26T09:54:47.722Z,315
2019-02-26T09:55:38.176Z,315
2019-02-26T09:56:38.170Z,320
2019-02-26T09:57:38.160Z,320
2019-02-26T09:58:42.802Z,320
2019-02-26T09:59:43.238Z,310
2019-02-26T10:00:54.005Z,305
2019-02-26T10:01:45.286Z,310
2019-02-26T10:02:40.015Z,325
2019-02-26T10:03:46.182Z,330
2019-02-26T10:04:39.007Z,320
2019-02-26T10:05:38.106Z,305
2019-02-26T10:06:44.836Z,295
2019-02-26T10:07:43.905Z,290
2019-02-26T10:08:40.040Z,290
2019-02-26T10:09:48.850Z,290
2019-02-26T10:10:46.353Z,305
2019-02-26T10:11:39.320Z,310
2019-02-26T10:12:43.295Z,300
2019-02-26T10:13:39.557Z,305
2019-02-26T10:14:43.292Z,310
2019-02-26T10:15:44.854Z,315
2019-02-26T10:16:40.635Z,325
2019-02-26T10:17:45.573Z,345
2019-02-26T10:18:40.326Z,365
2019-02-26T10:19:45.382Z,390
2019-02-26T10:20:43.142Z,405
2019-02-26T10:21:46.820Z,410
2019-02-26T10:22:45.230Z,420
2019-02-26T10:23:42.070Z,445
2019-02-26T10:24:45.281Z,445
2019-02-26T10:25:44.545Z,450
2019-02-26T10:26:45.757Z,440
2019-02-26T10:27:50.227Z,430
2019-02-26T10:28:52.911Z,405
2019-02-26T10:29:47.534Z,355
2019-02-26T10:30:46.558Z,325
2019-02-26T10:31:39.984Z,310
2019-02-26T10:32:39.974Z,305
2019-02-26T10:33:46.366Z,305
2019-02-26T10:34:40.031Z,310
2019-02-26T10:35:52.161Z,305
2019-02-26T10:36:53.985Z,300
2019-02-26T10:37:46.061Z,310
2019-02-26T10:38:43.262Z,330
2019-02-26T10:39:39.304Z,345
2019-02-26T10:41:05.088Z,365
2019-02-26T10:41:44.161Z,375
2019-02-26T10:42:48.588Z,390
2019-02-26T10:43:39.854Z,400
2019-02-26T10:44:37.907Z,400
2019-02-26T10:45:46.968Z,395
2019-02-26T10:46:46.824Z,390
2019-02-26T10:47:41.789Z,380
2019-02-26T10:48:37.884Z,370
2019-02-26T10:49:38.250Z,345
2019-02-26T10:50:51.942Z,350
2019-02-26T10:51:37.825Z,365
2019-02-26T10:52:38.024Z,370
2019-02-26T10:53:37.816Z,375
2019-02-26T10:54:49.139Z,385
2019-02-26T10:55:48.991Z,385
2019-02-26T10:56:49.368Z,385
2019-02-26T10:57:43.043Z,390
2019-02-26T10:58:37.798Z,390
2019-02-26T10:59:37.791Z,395
2019-02-26T11:00:44.705Z,415
2019-02-26T11:01:40.644Z,425
2019-02-26T11:02:37.809Z,405
2019-02-26T11:03:49.188Z,400
2019-02-26T11:04:55.475Z,395
2019-02-26T11:05:42.516Z,390
2019-02-26T11:06:48.606Z,365
2019-02-26T11:07:44.858Z,350
2019-02-26T11:08:42.076Z,355
2019-02-26T11:09:41.229Z,355
2019-02-26T11:10:44.830Z,360
2019-02-26T11:11:44.822Z,370
2019-02-26T11:12:43.256Z,400
2019-02-26T11:13:42.692Z,415
2019-02-26T11:14:44.764Z,445
2019-02-26T11:15:43.174Z,450
2019-02-26T11:16:43.917Z,445
2019-02-26T11:17:40.555Z,435
2019-02-26T11:18:44.896Z,425
2019-02-26T11:19:46.868Z,425
2019-02-26T11:20:41.441Z,425
2019-02-26T11:21:37.702Z,425
2019-02-26T11:22:39.926Z,420
2019-02-26T11:23:46.904Z,415
2019-02-26T11:24:43.133Z,405
2019-02-26T11:25:39.319Z,400
2019-02-26T11:26:46.228Z,415
2019-02-26T11:27:43.898Z,410
2019-02-26T11:28:50.276Z,410
2019-02-26T11:29:45.160Z,410
2019-02-26T11:30:41.400Z,405
2019-02-26T11:31:41.780Z,400
2019-02-26T11:32:46.523Z,400
2019-02-26T11:33:37.739Z,400
2019-02-26T11:34:44.577Z,405
2019-02-26T11:35:39.504Z,415
2019-02-26T11:36:45.779Z,415
2019-02-26T11:37:39.594Z,405
2019-02-26T11:38:44.495Z,405
2019-02-26T11:39:37.611Z,420
2019-02-26T11:40:40.139Z,420
2019-02-26T11:41:42.870Z,410
2019-02-26T11:42:39.823Z,390
2019-02-26T11:43:38.416Z,370
2019-02-26T11:44:37.568Z,355
2019-02-26T11:45:46.320Z,350
2019-02-26T11:46:43.779Z,355
2019-02-26T11:47:46.203Z,395
2019-02-26T11:48:40.400Z,435
2019-02-26T11:49:44.220Z,460
2019-02-26T11:50:37.729Z,445
2019-02-26T11:51:49.029Z,425
2019-02-26T11:52:40.908Z,415
2019-02-26T11:53:39.701Z,395
2019-02-26T11:54:47.069Z,365
2019-02-26T11:55:44.362Z,355
2019-02-26T11:56:42.459Z,370
2019-02-26T11:57:50.248Z,385
2019-02-26T11:58:37.484Z,395
2019-02-26T11:59:45.200Z,385
2019-02-26T12:00:52.625Z,385
2019-02-26T12:01:44.553Z,385
2019-02-26T12:02:48.303Z,385
2019-02-26T12:03:47.004Z,375
2019-02-26T12:04:37.483Z,360
2019-02-26T12:05:46.585Z,345
2019-02-26T12:06:37.459Z,345
2019-02-26T12:07:41.862Z,345
2019-02-26T12:08:40.492Z,330
2019-02-26T12:09:45.959Z,320
2019-02-26T12:10:45.338Z,325
2019-02-26T12:11:37.420Z,325
2019-02-26T12:12:41.742Z,335
2019-02-26T12:13:39.489Z,350
2019-02-26T12:14:46.556Z,345
2019-02-26T12:15:47.307Z,345
2019-02-26T12:16:38.025Z,350
2019-02-26T12:17:37.393Z,340
2019-02-26T12:18:43.569Z,325
2019-02-26T12:19:42.010Z,315
2019-02-26T12:22:59.521Z,310
2019-02-26T12:23:53.901Z,305
2019-02-26T12:24:59.666Z,310
2019-02-26T12:25:58.201Z,310
2019-02-26T12:26:57.190Z,315
2019-02-26T12:27:55.256Z,320
2019-02-26T12:28:52.250Z,325
2019-02-26T12:29:59.025Z,320
2019-02-26T12:30:53.916Z,325
2019-02-26T12:31:53.860Z,325
2019-02-26T12:32:57.604Z,325
2019-02-26T12:33:50.413Z,315
2019-02-26T12:34:56.233Z,305
2019-02-26T12:35:55.483Z,300
2019-02-26T12:36:57.074Z,290
2019-02-26T12:37:56.480Z,290
2019-02-26T12:38:59.179Z,280
2019-02-26T12:40:00.320Z,280
2019-02-26T12:42:53.316Z,280
2019-02-26T12:43:09.050Z,285
2019-02-26T12:44:16.740Z,300
2019-02-26T12:45:13.560Z,295
2019-02-26T12:46:12.745Z,290
2019-02-26T12:47:07.615Z,280
2019-02-26T12:48:06.357Z,280
2019-02-26T12:49:08.504Z,290
2019-02-26T12:50:11.630Z,300
2019-02-26T12:51:12.178Z,300
2019-02-26T12:52:08.239Z,300
2019-02-26T12:53:04.392Z,300
2019-02-26T12:54:07.022Z,295
2019-02-26T12:55:12.627Z,295
2019-02-26T12:56:13.359Z,290
2019-02-26T12:57:10.699Z,295
2019-02-26T12:58:06.751Z,290
2019-02-26T12:59:06.779Z,295
2019-02-26T13:00:03.041Z,300
2019-02-26T13:01:03.054Z,300
2019-02-26T13:02:05.421Z,300
2019-02-26T13:03:05.552Z,305
2019-02-26T13:04:06.061Z,300
2019-02-26T13:05:03.052Z,300
2019-02-26T13:06:05.757Z,290
2019-02-26T13:07:05.403Z,290
2019-02-26T13:08:03.250Z,280
2019-02-26T13:09:02.991Z,275
2019-02-26T13:10:11.056Z,255
2019-02-26T13:13:13.726Z,250
2019-02-26T13:13:23.973Z,255
2019-02-26T13:14:23.530Z,265
2019-02-26T13:15:28.580Z,265
2019-02-26T13:16:23.514Z,265
2019-02-26T13:17:36.920Z,260
2019-02-26T13:18:23.506Z,260
2019-02-26T13:19:41.823Z,270
2019-02-26T13:20:23.498Z,265
2019-02-26T13:21:26.359Z,260
2019-02-26T13:22:29.532Z,265
2019-02-26T13:23:30.038Z,260
2019-02-26T13:26:39.629Z,250
2019-02-26T13:27:03.815Z,245
2019-02-26T13:27:55.631Z,235
2019-02-26T13:29:02.936Z,230
2019-02-26T13:30:04.001Z,235
2019-02-26T13:30:51.675Z,235
2019-02-26T13:32:13.377Z,230
2019-02-26T13:33:17.798Z,220
2019-02-26T13:33:52.191Z,220
2019-02-26T13:34:56.419Z,215
2019-02-26T13:36:08.717Z,215
2019-02-26T13:37:01.682Z,215
2019-02-26T13:37:52.096Z,215
2019-02-26T13:38:56.415Z,215
2019-02-26T13:39:55.231Z,215
2019-02-26T13:40:51.619Z,205
2019-02-26T13:42:03.458Z,205
2019-02-26T13:43:51.618Z,215
2019-02-26T13:44:51.600Z,210
2019-02-26T13:45:51.596Z,210
2019-02-26T13:46:51.600Z,210
2019-02-26T13:47:52.377Z,205
2019-02-26T13:48:51.590Z,210
2019-02-26T13:49:52.079Z,220
2019-02-26T13:50:51.569Z,230
2019-02-26T13:51:51.556Z,235
2019-02-26T13:52:51.811Z,240
2019-02-26T13:53:51.548Z,240
2019-02-26T13:54:52.068Z,235
2019-02-26T13:55:51.543Z,225
2019-02-26T13:56:51.574Z,215
2019-02-26T13:57:51.578Z,215
2019-02-26T13:58:51.580Z,205
2019-02-26T13:59:51.563Z,200
2019-02-26T14:00:52.008Z,205
2019-02-26T14:01:51.553Z,205
2019-02-26T14:02:51.521Z,205
2019-02-26T14:03:51.509Z,210
2019-02-26T14:04:51.497Z,215
2019-02-26T14:05:51.506Z,205
2019-02-26T14:06:51.495Z,190
2019-02-26T14:07:51.474Z,180
2019-02-26T14:08:51.483Z,175
2019-02-26T14:09:51.909Z,170
2019-02-26T14:10:51.462Z,175
2019-02-26T14:11:51.460Z,180
2019-02-26T14:12:51.447Z,180
2019-02-26T14:13:51.439Z,180
2019-02-26T14:14:51.627Z,180
2019-02-26T14:15:51.426Z,180
2019-02-26T14:16:51.437Z,175
2019-02-26T14:17:51.425Z,170
2019-02-26T14:18:53.122Z,170
2019-02-26T14:19:51.929Z,165